sensor_id;sensor_type;location;lat;lon;timestamp;temperature;humidity
44223;DHT22;29895;48.804;9.386;2023-07-20T00:01:36;19.90;99.90
44223;DHT22;29895;48.804;9.386;2023-07-20T00:04:03;19.90;99.90
44223;DHT22;29895;48.804;9.386;2023-07-20T00:06:29;19.80;99.90
44223;DHT22;29895;48.804;9.386;2023-07-20T00:08:55;19.80;99.90
44223;DHT22;29895;48.804;9.386;2023-07-20T00:11:25;19.70;99.90
44223;DHT22;29895;48.804;9.386;2023-07-20T00:13:51;19.60;99.90
44223;DHT22;29895;48.804;9.386;2023-07-20T00:16:16;19.60;99.90
44223;DHT22;29895;48.804;9.386;2023-07-20T00:18:42;19.60;99.90
44223;DHT22;29895;48.804;9.386;2023-07-20T00:21:08;19.50;99.90
44223;DHT22;29895;48.804;9.386;2023-07-20T00:23:33;19.50;99.90
44223;DHT22;29895;48.804;9.386;2023-07-20T00:25:59;19.50;99.90
44223;DHT22;29895;48.804;9.386;2023-07-20T00:28:24;19.40;99.90
44223;DHT22;29895;48.804;9.386;2023-07-20T00:30:50;19.30;99.90
44223;DHT22;29895;48.804;9.386;2023-07-20T00:33:17;19.20;99.90
44223;DHT22;29895;48.804;9.386;2023-07-20T00:35:43;19.10;99.90
44223;DHT22;29895;48.804;9.386;2023-07-20T00:38:09;19.00;99.90
44223;DHT22;29895;48.804;9.386;2023-07-20T00:40:39;18.90;99.90
44223;DHT22;29895;48.804;9.386;2023-07-20T00:43:05;18.90;99.90
44223;DHT22;29895;48.804;9.386;2023-07-20T00:45:31;18.90;99.90
44223;DHT22;29895;48.804;9.386;2023-07-20T00:47:58;18.90;99.90
44223;DHT22;29895;48.804;9.386;2023-07-20T00:50:24;18.80;99.90
44223;DHT22;29895;48.804;9.386;2023-07-20T00:52:51;18.90;99.90
44223;DHT22;29895;48.804;9.386;2023-07-20T00:55:18;18.80;99.90
44223;DHT22;29895;48.804;9.386;2023-07-20T00:57:44;18.80;99.90
44223;DHT22;29895;48.804;9.386;2023-07-20T01:00:10;18.80;99.90
44223;DHT22;29895;48.804;9.386;2023-07-20T01:02:36;18.80;99.90
44223;DHT22;29895;48.804;9.386;2023-07-20T01:05:02;18.80;99.90
44223;DHT22;29895;48.804;9.386;2023-07-20T01:07:34;18.80;99.90
44223;DHT22;29895;48.804;9.386;2023-07-20T01:10:25;18.70;99.90
44223;DHT22;29895;48.804;9.386;2023-07-20T01:12:54;18.80;99.90
44223;DHT22;29895;48.804;9.386;2023-07-20T01:15:20;18.80;99.90
44223;DHT22;29895;48.804;9.386;2023-07-20T01:17:46;18.90;99.90
44223;DHT22;29895;48.804;9.386;2023-07-20T01:20:18;18.90;99.90
44223;DHT22;29895;48.804;9.386;2023-07-20T01:23:07;18.80;99.90
44223;DHT22;29895;48.804;9.386;2023-07-20T01:31:32;18.70;99.90
44223;DHT22;29895;48.804;9.386;2023-07-20T01:34:00;18.60;99.90
44223;DHT22;29895;48.804;9.386;2023-07-20T01:36:30;18.60;99.90
44223;DHT22;29895;48.804;9.386;2023-07-20T01:38:58;18.50;99.90
44223;DHT22;29895;48.804;9.386;2023-07-20T01:41:25;18.50;99.90
44223;DHT22;29895;48.804;9.386;2023-07-20T01:43:50;18.50;99.90
44223;DHT22;29895;48.804;9.386;2023-07-20T01:46:16;18.40;99.90
44223;DHT22;29895;48.804;9.386;2023-07-20T01:48:42;18.40;99.90
44223;DHT22;29895;48.804;9.386;2023-07-20T01:51:08;18.40;99.90
44223;DHT22;29895;48.804;9.386;2023-07-20T01:53:33;18.30;99.90
44223;DHT22;29895;48.804;9.386;2023-07-20T01:55:59;18.30;99.90
44223;DHT22;29895;48.804;9.386;2023-07-20T01:58:25;18.20;99.90
44223;DHT22;29895;48.804;9.386;2023-07-20T02:00:51;18.10;99.90
44223;DHT22;29895;48.804;9.386;2023-07-20T02:03:17;18.10;99.90
44223;DHT22;29895;48.804;9.386;2023-07-20T02:05:42;18.10;99.90
44223;DHT22;29895;48.804;9.386;2023-07-20T02:08:08;18.00;99.90
44223;DHT22;29895;48.804;9.386;2023-07-20T02:10:35;17.90;99.90
44223;DHT22;29895;48.804;9.386;2023-07-20T02:13:00;17.80;99.90
44223;DHT22;29895;48.804;9.386;2023-07-20T02:15:26;17.80;99.90
44223;DHT22;29895;48.804;9.386;2023-07-20T02:17:53;17.70;99.90
44223;DHT22;29895;48.804;9.386;2023-07-20T02:20:18;17.60;99.90
44223;DHT22;29895;48.804;9.386;2023-07-20T02:22:45;17.60;99.90
44223;DHT22;29895;48.804;9.386;2023-07-20T02:25:11;17.50;99.90
44223;DHT22;29895;48.804;9.386;2023-07-20T02:27:37;17.40;99.90
44223;DHT22;29895;48.804;9.386;2023-07-20T02:30:04;17.40;99.90
44223;DHT22;29895;48.804;9.386;2023-07-20T02:32:30;17.40;99.90
44223;DHT22;29895;48.804;9.386;2023-07-20T02:34:57;17.30;99.90
44223;DHT22;29895;48.804;9.386;2023-07-20T02:37:23;17.30;99.90
44223;DHT22;29895;48.804;9.386;2023-07-20T02:39:48;17.20;99.90
44223;DHT22;29895;48.804;9.386;2023-07-20T02:42:14;17.30;99.90
44223;DHT22;29895;48.804;9.386;2023-07-20T02:44:40;17.20;99.90
44223;DHT22;29895;48.804;9.386;2023-07-20T02:47:06;17.20;99.90
44223;DHT22;29895;48.804;9.386;2023-07-20T02:49:31;17.20;99.90
44223;DHT22;29895;48.804;9.386;2023-07-20T02:51:57;17.20;99.90
44223;DHT22;29895;48.804;9.386;2023-07-20T02:54:23;17.20;99.90
44223;DHT22;29895;48.804;9.386;2023-07-20T02:56:48;17.10;99.90
44223;DHT22;29895;48.804;9.386;2023-07-20T02:59:14;17.00;99.90
44223;DHT22;29895;48.804;9.386;2023-07-20T03:01:40;17.00;99.90
44223;DHT22;29895;48.804;9.386;2023-07-20T03:04:08;16.90;99.90
44223;DHT22;29895;48.804;9.386;2023-07-20T03:06:35;16.80;99.90
44223;DHT22;29895;48.804;9.386;2023-07-20T03:09:01;16.80;99.90
44223;DHT22;29895;48.804;9.386;2023-07-20T03:11:27;16.80;99.90
44223;DHT22;29895;48.804;9.386;2023-07-20T03:13:53;16.70;99.90
44223;DHT22;29895;48.804;9.386;2023-07-20T03:16:19;16.70;99.90
44223;DHT22;29895;48.804;9.386;2023-07-20T03:18:45;16.60;99.90
44223;DHT22;29895;48.804;9.386;2023-07-20T03:21:12;16.50;99.90
44223;DHT22;29895;48.804;9.386;2023-07-20T03:23:39;16.40;99.90
44223;DHT22;29895;48.804;9.386;2023-07-20T03:26:05;16.40;99.90
44223;DHT22;29895;48.804;9.386;2023-07-20T03:28:30;16.30;99.90
44223;DHT22;29895;48.804;9.386;2023-07-20T03:30:56;16.30;99.90
44223;DHT22;29895;48.804;9.386;2023-07-20T03:33:27;16.20;99.90
44223;DHT22;29895;48.804;9.386;2023-07-20T03:35:53;16.10;99.90
44223;DHT22;29895;48.804;9.386;2023-07-20T03:38:19;16.10;99.90
44223;DHT22;29895;48.804;9.386;2023-07-20T03:40:59;16.00;99.90
44223;DHT22;29895;48.804;9.386;2023-07-20T03:43:26;15.90;99.90
44223;DHT22;29895;48.804;9.386;2023-07-20T03:45:53;15.90;99.90
44223;DHT22;29895;48.804;9.386;2023-07-20T03:48:20;15.80;99.90
44223;DHT22;29895;48.804;9.386;2023-07-20T03:50:48;15.80;99.90
44223;DHT22;29895;48.804;9.386;2023-07-20T03:53:15;15.80;99.90
44223;DHT22;29895;48.804;9.386;2023-07-20T03:55:51;15.80;99.90
44223;DHT22;29895;48.804;9.386;2023-07-20T03:58:18;15.80;99.90
44223;DHT22;29895;48.804;9.386;2023-07-20T04:00:49;15.70;99.90
44223;DHT22;29895;48.804;9.386;2023-07-20T04:03:16;15.60;99.90
44223;DHT22;29895;48.804;9.386;2023-07-20T04:05:43;15.60;99.90
44223;DHT22;29895;48.804;9.386;2023-07-20T04:08:09;15.60;99.90
44223;DHT22;29895;48.804;9.386;2023-07-20T04:10:36;15.50;99.90
44223;DHT22;29895;48.804;9.386;2023-07-20T04:13:02;15.50;99.90
44223;DHT22;29895;48.804;9.386;2023-07-20T04:15:28;15.50;99.90
44223;DHT22;29895;48.804;9.386;2023-07-20T04:17:53;15.60;99.90
44223;DHT22;29895;48.804;9.386;2023-07-20T04:20:21;15.80;99.90
44223;DHT22;29895;48.804;9.386;2023-07-20T04:22:46;16.00;99.90
44223;DHT22;29895;48.804;9.386;2023-07-20T04:25:12;16.20;99.90
44223;DHT22;29895;48.804;9.386;2023-07-20T04:27:37;16.40;99.90
44223;DHT22;29895;48.804;9.386;2023-07-20T04:30:03;16.60;99.90
44223;DHT22;29895;48.804;9.386;2023-07-20T04:32:29;16.60;99.90
44223;DHT22;29895;48.804;9.386;2023-07-20T04:34:55;16.70;99.90
44223;DHT22;29895;48.804;9.386;2023-07-20T04:37:21;16.90;99.90
44223;DHT22;29895;48.804;9.386;2023-07-20T04:39:47;17.00;99.90
44223;DHT22;29895;48.804;9.386;2023-07-20T04:42:12;17.20;99.90
44223;DHT22;29895;48.804;9.386;2023-07-20T04:44:38;17.30;99.90
44223;DHT22;29895;48.804;9.386;2023-07-20T04:47:04;17.50;99.90
44223;DHT22;29895;48.804;9.386;2023-07-20T04:49:30;17.60;99.90
44223;DHT22;29895;48.804;9.386;2023-07-20T04:51:55;17.70;99.90
44223;DHT22;29895;48.804;9.386;2023-07-20T04:54:21;17.70;99.90
44223;DHT22;29895;48.804;9.386;2023-07-20T04:56:47;17.80;99.90
44223;DHT22;29895;48.804;9.386;2023-07-20T04:59:12;17.90;99.90
44223;DHT22;29895;48.804;9.386;2023-07-20T05:01:38;17.90;99.90
44223;DHT22;29895;48.804;9.386;2023-07-20T05:04:04;18.10;99.90
44223;DHT22;29895;48.804;9.386;2023-07-20T05:06:29;18.40;99.90
44223;DHT22;29895;48.804;9.386;2023-07-20T05:08:55;18.70;99.90
44223;DHT22;29895;48.804;9.386;2023-07-20T05:11:20;19.00;99.90
44223;DHT22;29895;48.804;9.386;2023-07-20T05:13:46;19.20;99.90
44223;DHT22;29895;48.804;9.386;2023-07-20T05:16:12;19.60;99.90
44223;DHT22;29895;48.804;9.386;2023-07-20T05:18:37;19.90;99.90
44223;DHT22;29895;48.804;9.386;2023-07-20T05:21:03;20.10;99.90
44223;DHT22;29895;48.804;9.386;2023-07-20T05:23:28;20.30;99.90
44223;DHT22;29895;48.804;9.386;2023-07-20T05:25:58;20.40;99.90
44223;DHT22;29895;48.804;9.386;2023-07-20T05:28:25;20.50;99.90
44223;DHT22;29895;48.804;9.386;2023-07-20T05:30:52;20.60;99.90
44223;DHT22;29895;48.804;9.386;2023-07-20T05:33:21;20.70;99.90
44223;DHT22;29895;48.804;9.386;2023-07-20T05:35:47;20.80;99.90
44223;DHT22;29895;48.804;9.386;2023-07-20T05:38:13;21.00;99.90
44223;DHT22;29895;48.804;9.386;2023-07-20T05:40:43;21.10;99.90
44223;DHT22;29895;48.804;9.386;2023-07-20T05:43:09;21.40;99.90
44223;DHT22;29895;48.804;9.386;2023-07-20T05:45:35;21.60;99.90
44223;DHT22;29895;48.804;9.386;2023-07-20T05:48:01;21.70;99.90
44223;DHT22;29895;48.804;9.386;2023-07-20T05:50:26;21.70;99.90
44223;DHT22;29895;48.804;9.386;2023-07-20T05:52:53;22.00;99.90
44223;DHT22;29895;48.804;9.386;2023-07-20T05:55:19;22.00;99.90
44223;DHT22;29895;48.804;9.386;2023-07-20T05:57:45;22.30;99.90
44223;DHT22;29895;48.804;9.386;2023-07-20T06:00:11;22.50;99.90
44223;DHT22;29895;48.804;9.386;2023-07-20T06:02:38;22.50;99.90
44223;DHT22;29895;48.804;9.386;2023-07-20T06:05:08;22.50;99.90
44223;DHT22;29895;48.804;9.386;2023-07-20T06:07:37;23.00;99.90
44223;DHT22;29895;48.804;9.386;2023-07-20T06:10:04;23.40;99.00
44223;DHT22;29895;48.804;9.386;2023-07-20T06:12:31;23.50;98.60
44223;DHT22;29895;48.804;9.386;2023-07-20T06:14:56;23.50;98.60
44223;DHT22;29895;48.804;9.386;2023-07-20T06:17:22;23.50;98.70
44223;DHT22;29895;48.804;9.386;2023-07-20T06:19:47;23.30;98.60
44223;DHT22;29895;48.804;9.386;2023-07-20T06:22:13;23.20;98.70
44223;DHT22;29895;48.804;9.386;2023-07-20T06:24:39;23.10;98.70
44223;DHT22;29895;48.804;9.386;2023-07-20T06:27:05;23.00;99.10
44223;DHT22;29895;48.804;9.386;2023-07-20T06:29:31;22.90;99.20
44223;DHT22;29895;48.804;9.386;2023-07-20T06:31:56;22.80;99.10
44223;DHT22;29895;48.804;9.386;2023-07-20T06:34:22;22.70;99.70
44223;DHT22;29895;48.804;9.386;2023-07-20T06:36:49;22.80;99.90
44223;DHT22;29895;48.804;9.386;2023-07-20T06:39:15;22.80;99.70
44223;DHT22;29895;48.804;9.386;2023-07-20T06:41:40;23.00;99.30
44223;DHT22;29895;48.804;9.386;2023-07-20T06:44:06;23.20;98.80
44223;DHT22;29895;48.804;9.386;2023-07-20T06:46:33;23.30;98.60
44223;DHT22;29895;48.804;9.386;2023-07-20T06:48:58;23.30;98.90
44223;DHT22;29895;48.804;9.386;2023-07-20T06:51:24;23.40;98.90
44223;DHT22;29895;48.804;9.386;2023-07-20T06:53:50;23.60;98.80
44223;DHT22;29895;48.804;9.386;2023-07-20T06:56:15;23.90;98.10
44223;DHT22;29895;48.804;9.386;2023-07-20T06:58:41;24.10;97.70
44223;DHT22;29895;48.804;9.386;2023-07-20T07:01:08;24.10;97.20
44223;DHT22;29895;48.804;9.386;2023-07-20T07:03:33;24.10;97.40
44223;DHT22;29895;48.804;9.386;2023-07-20T07:05:59;24.10;97.50
44223;DHT22;29895;48.804;9.386;2023-07-20T07:08:25;24.30;97.50
44223;DHT22;29895;48.804;9.386;2023-07-20T07:10:52;24.30;97.00
44223;DHT22;29895;48.804;9.386;2023-07-20T07:13:18;24.50;96.80
44223;DHT22;29895;48.804;9.386;2023-07-20T07:15:44;24.70;96.40
44223;DHT22;29895;48.804;9.386;2023-07-20T07:18:09;25.10;96.60
44223;DHT22;29895;48.804;9.386;2023-07-20T07:20:35;25.70;96.10
44223;DHT22;29895;48.804;9.386;2023-07-20T07:23:01;26.30;94.90
44223;DHT22;29895;48.804;9.386;2023-07-20T07:25:27;26.10;94.80
44223;DHT22;29895;48.804;9.386;2023-07-20T07:27:53;25.80;94.90
44223;DHT22;29895;48.804;9.386;2023-07-20T07:30:19;25.60;95.10
44223;DHT22;29895;48.804;9.386;2023-07-20T07:32:45;25.50;95.30
44223;DHT22;29895;48.804;9.386;2023-07-20T07:35:11;25.70;95.10
44223;DHT22;29895;48.804;9.386;2023-07-20T07:37:37;26.20;94.50
44223;DHT22;29895;48.804;9.386;2023-07-20T07:40:03;26.50;94.10
44223;DHT22;29895;48.804;9.386;2023-07-20T07:42:29;26.20;94.30
44223;DHT22;29895;48.804;9.386;2023-07-20T07:44:55;26.40;93.90
44223;DHT22;29895;48.804;9.386;2023-07-20T07:47:21;26.90;93.80
44223;DHT22;29895;48.804;9.386;2023-07-20T07:49:46;27.40;93.10
44223;DHT22;29895;48.804;9.386;2023-07-20T07:52:12;27.90;92.50
44223;DHT22;29895;48.804;9.386;2023-07-20T07:54:39;28.40;92.10
44223;DHT22;29895;48.804;9.386;2023-07-20T07:57:05;28.30;91.30
44223;DHT22;29895;48.804;9.386;2023-07-20T07:59:31;27.50;92.00
44223;DHT22;29895;48.804;9.386;2023-07-20T08:02:02;26.70;92.80
44223;DHT22;29895;48.804;9.386;2023-07-20T08:04:28;26.30;93.10
44223;DHT22;29895;48.804;9.386;2023-07-20T08:06:54;26.10;93.50
44223;DHT22;29895;48.804;9.386;2023-07-20T08:09:19;25.80;93.40
44223;DHT22;29895;48.804;9.386;2023-07-20T08:11:45;25.50;93.70
44223;DHT22;29895;48.804;9.386;2023-07-20T08:14:10;25.20;94.30
44223;DHT22;29895;48.804;9.386;2023-07-20T08:16:36;25.40;94.90
44223;DHT22;29895;48.804;9.386;2023-07-20T08:19:02;25.60;94.00
44223;DHT22;29895;48.804;9.386;2023-07-20T08:21:28;25.20;94.20
44223;DHT22;29895;48.804;9.386;2023-07-20T08:23:53;25.20;94.10
44223;DHT22;29895;48.804;9.386;2023-07-20T08:26:19;24.90;94.40
44223;DHT22;29895;48.804;9.386;2023-07-20T08:28:48;24.70;95.00
44223;DHT22;29895;48.804;9.386;2023-07-20T08:31:14;24.20;95.70
44223;DHT22;29895;48.804;9.386;2023-07-20T08:33:39;24.00;95.70
44223;DHT22;29895;48.804;9.386;2023-07-20T08:36:05;23.90;96.00
44223;DHT22;29895;48.804;9.386;2023-07-20T08:38:34;24.10;95.50
44223;DHT22;29895;48.804;9.386;2023-07-20T08:41:00;24.40;95.00
44223;DHT22;29895;48.804;9.386;2023-07-20T08:43:27;24.40;94.40
44223;DHT22;29895;48.804;9.386;2023-07-20T08:45:55;24.70;94.30
44223;DHT22;29895;48.804;9.386;2023-07-20T08:48:24;24.80;94.10
44223;DHT22;29895;48.804;9.386;2023-07-20T08:50:53;25.10;93.70
44223;DHT22;29895;48.804;9.386;2023-07-20T08:53:20;24.90;93.90
44223;DHT22;29895;48.804;9.386;2023-07-20T08:55:49;24.90;94.10
44223;DHT22;29895;48.804;9.386;2023-07-20T08:58:15;24.80;94.10
44223;DHT22;29895;48.804;9.386;2023-07-20T09:00:42;24.50;94.20
44223;DHT22;29895;48.804;9.386;2023-07-20T09:03:08;24.10;95.10
44223;DHT22;29895;48.804;9.386;2023-07-20T09:05:35;23.80;95.00
44223;DHT22;29895;48.804;9.386;2023-07-20T09:08:01;23.40;95.60
44223;DHT22;29895;48.804;9.386;2023-07-20T09:10:30;23.10;96.30
44223;DHT22;29895;48.804;9.386;2023-07-20T09:12:56;22.80;96.50
44223;DHT22;29895;48.804;9.386;2023-07-20T09:15:22;23.10;97.00
44223;DHT22;29895;48.804;9.386;2023-07-20T09:17:51;23.80;96.10
44223;DHT22;29895;48.804;9.386;2023-07-20T09:20:19;24.20;95.00
44223;DHT22;29895;48.804;9.386;2023-07-20T09:22:46;24.60;93.70
44223;DHT22;29895;48.804;9.386;2023-07-20T09:25:12;25.10;92.40
44223;DHT22;29895;48.804;9.386;2023-07-20T09:27:40;25.00;91.80
44223;DHT22;29895;48.804;9.386;2023-07-20T09:30:07;25.10;92.20
44223;DHT22;29895;48.804;9.386;2023-07-20T09:35:14;24.90;92.10
44223;DHT22;29895;48.804;9.386;2023-07-20T09:37:42;24.90;92.30
44223;DHT22;29895;48.804;9.386;2023-07-20T09:40:11;25.20;92.10
44223;DHT22;29895;48.804;9.386;2023-07-20T09:42:37;25.20;92.10
44223;DHT22;29895;48.804;9.386;2023-07-20T09:45:06;25.10;91.90
44223;DHT22;29895;48.804;9.386;2023-07-20T09:47:39;25.50;91.70
44223;DHT22;29895;48.804;9.386;2023-07-20T09:50:06;25.70;91.20
44223;DHT22;29895;48.804;9.386;2023-07-20T09:52:38;25.50;91.40
44223;DHT22;29895;48.804;9.386;2023-07-20T09:55:09;25.30;91.40
44223;DHT22;29895;48.804;9.386;2023-07-20T09:57:35;25.10;91.70
44223;DHT22;29895;48.804;9.386;2023-07-20T10:00:02;25.30;91.80
44223;DHT22;29895;48.804;9.386;2023-07-20T10:02:33;25.30;91.70
44223;DHT22;29895;48.804;9.386;2023-07-20T10:05:02;25.00;91.90
44223;DHT22;29895;48.804;9.386;2023-07-20T10:07:30;24.70;92.00
44223;DHT22;29895;48.804;9.386;2023-07-20T10:09:59;24.40;92.40
44223;DHT22;29895;48.804;9.386;2023-07-20T10:12:25;24.30;92.50
44223;DHT22;29895;48.804;9.386;2023-07-20T10:15:11;24.70;91.60
44223;DHT22;29895;48.804;9.386;2023-07-20T10:17:42;25.00;91.00
44223;DHT22;29895;48.804;9.386;2023-07-20T10:20:10;25.20;90.80
44223;DHT22;29895;48.804;9.386;2023-07-20T10:22:38;25.60;90.40
44223;DHT22;29895;48.804;9.386;2023-07-20T10:25:04;26.20;89.60
44223;DHT22;29895;48.804;9.386;2023-07-20T10:27:32;26.60;88.30
44223;DHT22;29895;48.804;9.386;2023-07-20T10:29:58;27.10;87.60
44223;DHT22;29895;48.804;9.386;2023-07-20T10:32:25;27.30;86.50
44223;DHT22;29895;48.804;9.386;2023-07-20T10:34:52;26.70;85.60
44223;DHT22;29895;48.804;9.386;2023-07-20T10:37:49;26.10;86.30
44223;DHT22;29895;48.804;9.386;2023-07-20T10:40:38;25.60;86.80
44223;DHT22;29895;48.804;9.386;2023-07-20T10:43:08;25.40;88.40
44223;DHT22;29895;48.804;9.386;2023-07-20T10:45:50;25.30;89.10
44223;DHT22;29895;48.804;9.386;2023-07-20T10:48:23;25.30;88.70
44223;DHT22;29895;48.804;9.386;2023-07-20T10:53:34;26.10;85.10
44223;DHT22;29895;48.804;9.386;2023-07-20T10:56:14;26.60;84.00
44223;DHT22;29895;48.804;9.386;2023-07-20T10:58:41;27.10;83.70
44223;DHT22;29895;48.804;9.386;2023-07-20T11:01:08;27.10;83.80
44223;DHT22;29895;48.804;9.386;2023-07-20T11:03:37;27.00;82.20
44223;DHT22;29895;48.804;9.386;2023-07-20T11:08:50;26.30;82.10
44223;DHT22;29895;48.804;9.386;2023-07-20T11:11:24;26.20;82.20
44223;DHT22;29895;48.804;9.386;2023-07-20T11:14:10;26.20;81.60
44223;DHT22;29895;48.804;9.386;2023-07-20T11:16:44;26.00;83.10
44223;DHT22;29895;48.804;9.386;2023-07-20T11:19:23;26.10;82.80
44223;DHT22;29895;48.804;9.386;2023-07-20T11:21:54;26.30;82.60
44223;DHT22;29895;48.804;9.386;2023-07-20T11:24:20;27.00;81.80
44223;DHT22;29895;48.804;9.386;2023-07-20T11:26:47;27.80;78.50
44223;DHT22;29895;48.804;9.386;2023-07-20T11:29:13;27.50;78.00
44223;DHT22;29895;48.804;9.386;2023-07-20T11:31:40;27.20;78.70
44223;DHT22;29895;48.804;9.386;2023-07-20T11:34:10;27.40;78.10
44223;DHT22;29895;48.804;9.386;2023-07-20T11:36:38;27.00;77.80
44223;DHT22;29895;48.804;9.386;2023-07-20T11:39:04;26.70;78.20
44223;DHT22;29895;48.804;9.386;2023-07-20T11:41:31;26.60;78.10
44223;DHT22;29895;48.804;9.386;2023-07-20T11:43:57;26.20;77.80
44223;DHT22;29895;48.804;9.386;2023-07-20T11:46:23;26.10;79.30
44223;DHT22;29895;48.804;9.386;2023-07-20T11:48:49;26.60;78.10
44223;DHT22;29895;48.804;9.386;2023-07-20T11:51:15;27.30;77.30
44223;DHT22;29895;48.804;9.386;2023-07-20T11:53:43;27.80;75.50
44223;DHT22;29895;48.804;9.386;2023-07-20T11:56:09;28.00;75.80
44223;DHT22;29895;48.804;9.386;2023-07-20T11:58:35;28.40;74.60
44223;DHT22;29895;48.804;9.386;2023-07-20T12:01:00;28.80;73.90
44223;DHT22;29895;48.804;9.386;2023-07-20T12:03:27;28.50;73.60
44223;DHT22;29895;48.804;9.386;2023-07-20T12:05:53;28.00;73.60
44223;DHT22;29895;48.804;9.386;2023-07-20T12:08:19;27.10;74.00
44223;DHT22;29895;48.804;9.386;2023-07-20T12:10:44;26.20;74.90
44223;DHT22;29895;48.804;9.386;2023-07-20T12:13:10;26.10;75.90
44223;DHT22;29895;48.804;9.386;2023-07-20T12:15:39;26.90;76.40
44223;DHT22;29895;48.804;9.386;2023-07-20T12:18:05;27.80;73.50
44223;DHT22;29895;48.804;9.386;2023-07-20T12:20:37;28.50;72.10
44223;DHT22;29895;48.804;9.386;2023-07-20T12:23:04;28.20;72.30
44223;DHT22;29895;48.804;9.386;2023-07-20T12:25:46;28.50;72.80
44223;DHT22;29895;48.804;9.386;2023-07-20T12:28:13;29.40;71.40
44223;DHT22;29895;48.804;9.386;2023-07-20T12:30:40;30.00;69.60
44223;DHT22;29895;48.804;9.386;2023-07-20T12:33:06;30.40;68.60
44223;DHT22;29895;48.804;9.386;2023-07-20T12:35:32;30.30;67.80
44223;DHT22;29895;48.804;9.386;2023-07-20T12:37:58;30.50;67.50
44223;DHT22;29895;48.804;9.386;2023-07-20T12:40:24;30.50;67.70
44223;DHT22;29895;48.804;9.386;2023-07-20T12:42:50;30.20;65.70
44223;DHT22;29895;48.804;9.386;2023-07-20T12:45:15;29.70;65.70
44223;DHT22;29895;48.804;9.386;2023-07-20T12:47:41;28.70;67.40
44223;DHT22;29895;48.804;9.386;2023-07-20T12:50:09;28.10;69.00
44223;DHT22;29895;48.804;9.386;2023-07-20T12:52:39;28.50;68.20
44223;DHT22;29895;48.804;9.386;2023-07-20T12:55:06;28.50;67.90
44223;DHT22;29895;48.804;9.386;2023-07-20T12:57:36;28.50;67.50
44223;DHT22;29895;48.804;9.386;2023-07-20T13:00:04;28.40;69.10
44223;DHT22;29895;48.804;9.386;2023-07-20T13:02:32;28.50;67.30
44223;DHT22;29895;48.804;9.386;2023-07-20T13:04:57;28.30;67.70
44223;DHT22;29895;48.804;9.386;2023-07-20T13:07:34;28.40;66.80
44223;DHT22;29895;48.804;9.386;2023-07-20T13:10:01;28.20;68.00
44223;DHT22;29895;48.804;9.386;2023-07-20T13:12:28;27.80;68.20
44223;DHT22;29895;48.804;9.386;2023-07-20T13:14:58;28.30;68.40
44223;DHT22;29895;48.804;9.386;2023-07-20T13:17:26;29.10;67.70
44223;DHT22;29895;48.804;9.386;2023-07-20T13:19:52;29.60;67.20
44223;DHT22;29895;48.804;9.386;2023-07-20T13:22:18;29.90;65.80
44223;DHT22;29895;48.804;9.386;2023-07-20T13:24:47;30.10;65.20
44223;DHT22;29895;48.804;9.386;2023-07-20T13:27:18;29.70;64.90
44223;DHT22;29895;48.804;9.386;2023-07-20T13:29:45;29.50;65.60
44223;DHT22;29895;48.804;9.386;2023-07-20T13:32:14;29.40;64.80
44223;DHT22;29895;48.804;9.386;2023-07-20T13:34:44;29.00;65.90
44223;DHT22;29895;48.804;9.386;2023-07-20T13:37:10;28.20;66.20
44223;DHT22;29895;48.804;9.386;2023-07-20T13:39:36;28.10;66.30
44223;DHT22;29895;48.804;9.386;2023-07-20T13:42:02;28.40;65.70
44223;DHT22;29895;48.804;9.386;2023-07-20T13:44:31;28.40;65.80
44223;DHT22;29895;48.804;9.386;2023-07-20T13:46:56;28.60;65.50
44223;DHT22;29895;48.804;9.386;2023-07-20T13:49:23;28.50;65.00
44223;DHT22;29895;48.804;9.386;2023-07-20T13:51:48;28.80;66.10
44223;DHT22;29895;48.804;9.386;2023-07-20T13:54:14;28.90;64.90
44223;DHT22;29895;48.804;9.386;2023-07-20T13:56:40;29.00;65.20
44223;DHT22;29895;48.804;9.386;2023-07-20T13:59:06;28.80;65.00
44223;DHT22;29895;48.804;9.386;2023-07-20T14:01:31;28.70;65.20
44223;DHT22;29895;48.804;9.386;2023-07-20T14:04:00;28.80;65.30
44223;DHT22;29895;48.804;9.386;2023-07-20T14:06:29;29.00;65.20
44223;DHT22;29895;48.804;9.386;2023-07-20T14:08:54;29.20;64.30
44223;DHT22;29895;48.804;9.386;2023-07-20T14:11:20;29.60;64.50
44223;DHT22;29895;48.804;9.386;2023-07-20T14:13:46;30.30;64.10
44223;DHT22;29895;48.804;9.386;2023-07-20T14:16:11;30.20;63.10
44223;DHT22;29895;48.804;9.386;2023-07-20T14:18:37;29.20;63.50
44223;DHT22;29895;48.804;9.386;2023-07-20T14:21:02;28.90;63.80
44223;DHT22;29895;48.804;9.386;2023-07-20T14:23:30;28.70;64.20
44223;DHT22;29895;48.804;9.386;2023-07-20T14:25:56;28.50;63.50
44223;DHT22;29895;48.804;9.386;2023-07-20T14:28:21;28.70;64.10
44223;DHT22;29895;48.804;9.386;2023-07-20T14:30:47;29.40;63.10
44223;DHT22;29895;48.804;9.386;2023-07-20T14:33:13;29.70;62.80
44223;DHT22;29895;48.804;9.386;2023-07-20T14:35:38;30.10;61.50
44223;DHT22;29895;48.804;9.386;2023-07-20T14:38:04;30.10;61.90
44223;DHT22;29895;48.804;9.386;2023-07-20T14:40:30;30.00;62.20
44223;DHT22;29895;48.804;9.386;2023-07-20T14:42:56;29.60;62.90
44223;DHT22;29895;48.804;9.386;2023-07-20T14:45:22;29.80;62.10
44223;DHT22;29895;48.804;9.386;2023-07-20T14:47:48;29.80;62.40
44223;DHT22;29895;48.804;9.386;2023-07-20T14:50:21;30.40;62.40
44223;DHT22;29895;48.804;9.386;2023-07-20T14:52:47;30.70;61.50
44223;DHT22;29895;48.804;9.386;2023-07-20T14:55:13;30.50;61.30
44223;DHT22;29895;48.804;9.386;2023-07-20T14:57:39;30.50;60.00
44223;DHT22;29895;48.804;9.386;2023-07-20T15:00:05;30.70;60.00
44223;DHT22;29895;48.804;9.386;2023-07-20T15:02:38;30.20;60.30
44223;DHT22;29895;48.804;9.386;2023-07-20T15:05:08;29.50;60.10
44223;DHT22;29895;48.804;9.386;2023-07-20T15:07:34;29.10;61.50
44223;DHT22;29895;48.804;9.386;2023-07-20T15:10:00;29.10;62.00
44223;DHT22;29895;48.804;9.386;2023-07-20T15:12:26;29.50;62.40
44223;DHT22;29895;48.804;9.386;2023-07-20T15:17:33;29.60;61.50
44223;DHT22;29895;48.804;9.386;2023-07-20T15:19:59;29.80;61.00
44223;DHT22;29895;48.804;9.386;2023-07-20T15:22:25;29.60;60.50
44223;DHT22;29895;48.804;9.386;2023-07-20T15:24:51;29.20;60.50
44223;DHT22;29895;48.804;9.386;2023-07-20T15:27:17;28.90;60.80
44223;DHT22;29895;48.804;9.386;2023-07-20T15:29:43;28.20;62.10
44223;DHT22;29895;48.804;9.386;2023-07-20T15:32:09;27.70;62.30
44223;DHT22;29895;48.804;9.386;2023-07-20T15:34:35;27.50;62.60
44223;DHT22;29895;48.804;9.386;2023-07-20T15:37:01;27.30;63.00
44223;DHT22;29895;48.804;9.386;2023-07-20T15:39:26;27.30;62.90
44223;DHT22;29895;48.804;9.386;2023-07-20T15:41:52;26.90;63.20
44223;DHT22;29895;48.804;9.386;2023-07-20T15:44:18;26.40;63.30
44223;DHT22;29895;48.804;9.386;2023-07-20T15:46:45;26.20;63.60